Time;durP1;ratioP1;P1;durP2;ratioP2;P2;SDS_P1;SDS_P2;PMS_P1;PMS_P2;Temp;Humidity;BMP_temperature;BMP_pressure;BME280_temperature;BME280_humidity;BME280_pressure;Samples;Min_cycle;Max_cycle;Signal;HPM_P1;HPM_P2
2022/10/06 00:03:58;;;;;;;8.07;4.57;;;;;;;13.26;100.00;100902.47;5134021;57;1141217;-71
2022/10/06 00:09:03;;;;;;;9.80;5.83;;;;;;;13.23;100.00;100896.56;5133734;57;1141181;-69
2022/10/06 00:14:09;;;;;;;13.70;5.67;;;;;;;13.19;100.00;100901.28;5140920;56;1141338;-68
2022/10/06 00:19:15;;;;;;;10.00;5.83;;;;;;;13.16;100.00;100900.68;5130677;56;1143126;-69
2022/10/06 00:24:20;;;;;;;8.53;5.50;;;;;;;13.14;100.00;100901.28;5130517;56;1143096;-65
2022/10/06 00:29:27;;;;;;;10.77;4.93;;;;;;;13.04;100.00;100908.66;5133408;57;1141158;-68
2022/10/06 00:34:33;;;;;;;11.40;4.80;;;;;;;12.96;100.00;100907.13;5154234;55;1143303;-68
2022/10/06 00:39:38;;;;;;;9.37;4.47;;;;;;;12.92;100.00;100904.84;5155056;55;1143311;-68
2022/10/06 00:44:47;;;;;;;8.70;4.57;;;;;;;12.87;100.00;100904.36;5210384;56;1141300;-66
2022/10/06 00:49:55;;;;;;;8.50;4.43;;;;;;;12.86;100.00;100898.69;5260865;55;1141126;-70
2022/10/06 00:55:03;;;;;;;8.17;5.30;;;;;;;12.83;100.00;100899.77;5186297;55;1141017;-65
2022/10/06 01:00:10;;;;;;;7.20;4.43;;;;;;;12.80;100.00;100894.73;5133469;57;1141418;-69
2022/10/06 01:05:26;;;;;;;9.77;4.67;;;;;;;12.80;100.00;100898.72;4998512;58;1141148;-70
2022/10/06 01:10:32;;;;;;;5.93;4.40;;;;;;;12.77;100.00;100904.27;4997896;58;1141382;-67
2022/10/06 01:15:42;;;;;;;8.23;4.97;;;;;;;12.73;100.00;100909.45;5024488;57;1141131;-70
2022/10/06 01:21:37;;;;;;;7.35;4.50;;;;;;;12.69;100.00;100908.84;4938997;59;1141214;-70
2022/10/06 01:26:45;;;;;;;7.30;4.50;;;;;;;12.70;100.00;100916.33;4993625;59;1141179;-68
2022/10/06 01:31:51;;;;;;;6.93;4.13;;;;;;;12.68;100.00;100923.56;4994504;59;1138986;-68
2022/10/06 01:36:57;;;;;;;5.83;3.87;;;;;;;12.66;100.00;100926.85;4994103;59;1139064;-68
2022/10/06 01:42:04;;;;;;;9.30;4.50;;;;;;;12.63;100.00;100929.27;5079454;57;1139078;-68
2022/10/06 01:47:10;;;;;;;10.53;4.60;;;;;;;12.63;100.00;100933.24;5036243;58;1139033;-70
2022/10/06 01:52:16;;;;;;;6.80;4.20;;;;;;;12.63;100.00;100935.05;5056038;58;1141370;-68
2022/10/06 01:57:22;;;;;;;6.23;3.77;;;;;;;12.60;100.00;100938.78;4982718;59;1139142;-66
2022/10/06 02:02:31;;;;;;;10.87;4.70;;;;;;;12.60;100.00;100945.91;4982828;59;1139270;-69
2022/10/06 02:07:38;;;;;;;5.60;3.77;;;;;;;12.56;100.00;100936.48;4981286;59;1141132;-66
2022/10/06 02:12:44;;;;;;;7.30;3.93;;;;;;;12.54;100.00;100937.94;5057885;58;1139368;-67
2022/10/06 02:17:50;;;;;;;13.17;4.80;;;;;;;12.54;100.00;100934.44;4981621;59;1139324;-66
2022/10/06 02:22:55;;;;;;;8.40;4.27;;;;;;;12.54;100.00;100939.26;4984117;58;1141168;-69
2022/10/06 02:28:01;;;;;;;5.53;3.70;;;;;;;12.55;100.00;100950.72;4983483;58;1139029;-69
2022/10/06 02:33:08;;;;;;;7.63;3.80;;;;;;;12.55;100.00;100954.70;4985195;58;1139046;-67
2022/10/06 02:38:15;;;;;;;6.20;4.12;;;;;;;12.56;100.00;100959.89;4979382;58;1139182;-70
2022/10/06 02:43:22;;;;;;;9.17;5.17;;;;;;;12.55;100.00;100963.98;4934999;59;1138995;-69
2022/10/06 02:48:29;;;;;;;7.03;4.00;;;;;;;12.51;100.00;100963.41;5066751;57;1139036;-70
2022/10/06 02:53:36;;;;;;;3.90;3.40;;;;;;;12.51;100.00;100970.52;5033923;57;1137202;-71
2022/10/06 02:58:44;;;;;;;10.25;4.33;;;;;;;12.48;100.00;100978.23;4996672;58;1136999;-67
2022/10/06 03:03:51;;;;;;;5.27;4.27;;;;;;;12.45;100.00;100984.25;4996420;58;1143276;-68
2022/10/06 03:09:01;;;;;;;7.53;4.20;;;;;;;12.44;100.00;100983.41;5073632;57;1141066;-66
2022/10/06 03:14:08;;;;;;;13.45;4.95;;;;;;;12.45;100.00;100990.41;5055726;57;1141090;-67
2022/10/06 16:25:35;;;;;;;7.60;1.00;;;;;;;17.72;57.00;101929.96;5304616;54;46121;-66
2022/10/06 16:30:40;;;;;;;9.48;1.40;;;;;;;17.43;57.91;101936.90;5095459;57;1132790;-73
2022/10/06 16:35:57;;;;;;;5.92;1.60;;;;;;;17.24;58.60;101946.97;5035381;57;1136989;-65
2022/10/06 16:41:03;;;;;;;8.85;2.10;;;;;;;17.10;59.22;101952.13;5106445;57;1136986;-65
2022/10/06 16:46:12;;;;;;;17.48;6.62;;;;;;;16.95;59.63;101948.53;5184820;55;1136966;-69
2022/10/06 16:51:24;;;;;;;13.60;5.43;;;;;;;16.79;60.32;101969.81;5005870;57;1139031;-69
2022/10/06 16:56:38;;;;;;;22.97;17.43;;;;;;;16.66;60.95;101982.43;4979173;57;1137340;-68
2022/10/06 17:01:44;;;;;;;20.63;12.30;;;;;;;16.51;61.52;101984.95;5029071;57;1143194;-66
2022/10/06 17:06:54;;;;;;;39.90;30.00;;;;;;;16.37;61.99;101994.55;5134316;56;1143210;-70
2022/10/06 17:12:04;;;;;;;23.30;15.37;;;;;;;16.23;62.55;102000.11;5082667;57;1143596;-67
2022/10/06 17:17:10;;;;;;;227.03;73.60;;;;;;;16.14;63.19;102001.21;5126734;57;1143442;-69
2022/10/06 17:22:16;;;;;;;439.60;114.10;;;;;;;16.12;63.68;102011.63;5105764;57;1145518;-65
2022/10/06 17:27:22;;;;;;;76.20;19.57;;;;;;;16.04;64.11;102010.05;5018308;58;1147226;-67
2022/10/06 17:32:28;;;;;;;17.10;8.43;;;;;;;15.94;64.74;102015.70;4959616;58;1143158;-68
2022/10/06 17:37:34;;;;;;;146.10;36.70;;;;;;;15.79;65.13;102021.73;5028308;58;1141160;-69
2022/10/06 17:42:40;;;;;;;57.53;15.20;;;;;;;15.63;65.55;102019.84;5023733;59;1145593;-65
2022/10/06 17:47:46;;;;;;;119.30;39.83;;;;;;;15.51;66.21;102016.25;5028615;59;1143201;-65
2022/10/06 17:52:52;;;;;;;61.57;23.10;;;;;;;15.44;66.56;102010.52;5028606;59;1145337;-68
2022/10/06 17:57:58;;;;;;;20.67;10.37;;;;;;;15.33;67.10;102014.47;5028352;59;1143160;-65
2022/10/06 18:03:03;;;;;;;16.87;7.83;;;;;;;15.26;67.36;102015.90;5027982;59;1143072;-67
2022/10/06 18:08:11;;;;;;;34.23;18.93;;;;;;;15.17;67.39;102027.22;4995994;58;1141091;-65
2022/10/06 18:13:16;;;;;;;37.10;17.53;;;;;;;15.16;67.75;102032.17;5037077;58;1143463;-67
2022/10/06 18:18:25;;;;;;;32.87;14.57;;;;;;;15.10;68.00;102032.16;5047418;58;1143601;-66
2022/10/06 18:23:32;;;;;;;26.17;14.50;;;;;;;15.04;68.35;102035.73;5003156;58;1143625;-69
2022/10/06 18:28:38;;;;;;;41.43;19.70;;;;;;;15.06;68.72;102037.81;5055350;58;1143222;-71
2022/10/06 18:33:47;;;;;;;30.77;16.23;;;;;;;15.10;68.95;102047.30;5112846;57;1143508;-70
2022/10/06 18:38:54;;;;;;;34.67;16.80;;;;;;;14.99;69.21;102056.52;5097670;57;1143173;-69
2022/10/06 18:44:03;;;;;;;22.30;11.53;;;;;;;14.95;69.75;102057.72;5090780;57;1143166;-68
2022/10/06 18:49:14;;;;;;;21.27;11.33;;;;;;;14.94;70.17;102054.20;5129680;56;1143330;-70
2022/10/06 18:54:26;;;;;;;30.23;12.23;;;;;;;14.92;70.65;102052.12;5104739;57;1143276;-68
2022/10/06 18:59:34;;;;;;;22.65;11.70;;;;;;;14.84;70.64;102057.13;5086130;57;1143189;-69
2022/10/06 19:04:40;;;;;;;40.13;21.27;;;;;;;14.73;70.61;102059.71;5083061;57;1143241;-70
2022/10/06 19:09:46;;;;;;;63.70;36.80;;;;;;;14.63;71.08;102063.99;5097664;57;1143328;-69
2022/10/06 19:14:52;;;;;;;83.80;38.83;;;;;;;14.52;71.17;102062.53;5100122;57;1143345;-70
2022/10/06 19:19:58;;;;;;;69.17;31.93;;;;;;;14.35;71.80;102063.22;5064886;57;1143059;-65
2022/10/06 19:25:04;;;;;;;55.83;28.33;;;;;;;14.22;72.04;102072.97;5101473;57;1143244;-68
2022/10/06 19:30:12;;;;;;;46.93;26.03;;;;;;;14.10;72.44;102073.81;5100249;57;1143378;-71
2022/10/06 19:35:18;;;;;;;45.13;23.67;;;;;;;14.06;73.05;102074.49;5102179;57;1143223;-70
2022/10/06 19:40:24;;;;;;;37.90;21.70;;;;;;;14.00;72.80;102074.92;5073475;57;1143178;-70
2022/10/06 19:45:30;;;;;;;67.87;29.03;;;;;;;13.91;73.25;102082.64;5124132;57;1141162;-67
2022/10/06 19:50:37;;;;;;;69.13;31.60;;;;;;;13.85;73.87;102101.69;5136063;57;1141140;-67
2022/10/06 19:55:43;;;;;;;71.90;30.83;;;;;;;13.77;73.84;102096.86;5136034;57;1141094;-64
2022/10/06 20:00:48;;;;;;;80.73;36.50;;;;;;;13.64;73.87;102094.16;5135804;57;1141170;-70
2022/10/06 20:05:55;;;;;;;68.60;32.37;;;;;;;13.62;74.42;102097.86;5102797;56;1141143;-65
2022/10/06 20:11:13;;;;;;;65.80;31.67;;;;;;;13.47;74.32;102106.36;5053121;57;1141418;-67
2022/10/06 20:16:21;;;;;;;53.53;24.37;;;;;;;13.41;74.49;102109.91;5110997;57;1141137;-66
2022/10/06 20:21:32;;;;;;;34.50;14.83;;;;;;;13.13;74.38;102115.63;5136024;56;1141107;-69
2022/10/06 20:26:41;;;;;;;38.63;17.73;;;;;;;13.12;75.30;102119.22;5134784;56;1141043;-67
2022/10/06 20:31:52;;;;;;;34.10;17.80;;;;;;;13.17;75.75;102121.13;5109874;57;1141371;-70
2022/10/06 20:37:01;;;;;;;55.53;21.33;;;;;;;13.16;75.65;102122.55;5049944;58;1141105;-69
2022/10/06 20:42:07;;;;;;;43.00;20.30;;;;;;;13.16;76.00;102123.40;5055307;57;1141404;-69
2022/10/06 20:47:15;;;;;;;53.13;23.27;;;;;;;13.12;76.00;102121.02;5133648;57;1139232;-70
2022/10/06 20:52:22;;;;;;;46.80;22.97;;;;;;;12.69;75.62;102113.03;5133532;57;1139059;-68
2022/10/06 20:57:28;;;;;;;46.80;20.90;;;;;;;12.69;75.62;102113.03;5050362;57;1143446;-67
2022/10/06 21:02:34;;;;;;;68.87;27.83;;;;;;;12.58;75.95;102129.63;5050745;57;1143598;-70
2022/10/06 21:07:41;;;;;;;85.55;31.75;;;;;;;12.52;76.46;102130.01;5052246;57;1143272;-67
2022/10/06 21:12:47;;;;;;;71.67;27.37;;;;;;;12.45;76.43;102137.94;5053413;57;1143210;-69
2022/10/06 21:17:53;;;;;;;67.07;26.10;;;;;;;12.37;76.30;102142.01;5135440;57;1143342;-67
2022/10/06 21:22:59;;;;;;;74.70;30.17;;;;;;;12.26;76.54;102142.63;5135616;57;1143240;-69
2022/10/06 21:28:05;;;;;;;57.17;24.00;;;;;;;12.24;77.25;102140.05;5134775;57;1143225;-69
2022/10/06 21:33:11;;;;;;;67.00;24.27;;;;;;;12.21;77.01;102137.61;5086387;57;1143446;-69
2022/10/06 21:38:17;;;;;;;55.33;24.30;;;;;;;12.18;77.05;102135.59;5081913;57;1143177;-66
2022/10/06 21:43:23;;;;;;;59.37;23.07;;;;;;;12.15;77.32;102132.65;5133380;57;1143206;-68
2022/10/06 21:48:29;;;;;;;59.53;23.77;;;;;;;12.14;77.55;102137.57;5132916;57;1143215;-69
2022/10/06 21:53:35;;;;;;;73.87;28.07;;;;;;;12.11;77.70;102140.39;5132334;57;1143216;-68
2022/10/06 21:58:42;;;;;;;64.10;26.07;;;;;;;12.05;77.67;102142.09;5133238;56;1143128;-69
2022/10/06 22:03:48;;;;;;;55.17;22.37;;;;;;;11.96;77.39;102138.16;5133355;57;1143605;-70
2022/10/06 22:08:54;;;;;;;64.90;25.93;;;;;;;11.81;77.32;102141.69;5133073;56;1143478;-71
2022/10/06 22:14:02;;;;;;;62.87;24.27;;;;;;;11.73;77.69;102143.05;5113030;56;1143752;-67
2022/10/06 22:19:12;;;;;;;46.10;17.47;;;;;;;11.64;77.77;102134.66;5050928;57;1143281;-69
2022/10/06 22:24:21;;;;;;;37.30;14.10;;;;;;;11.42;77.21;102124.89;5053832;57;1143416;-66
2022/10/06 22:29:27;;;;;;;36.07;13.07;;;;;;;11.35;78.37;102133.25;5068754;56;1143242;-69
2022/10/06 22:34:32;;;;;;;32.17;12.97;;;;;;;11.36;78.80;102124.36;5122497;57;1143319;-70
2022/10/06 22:39:39;;;;;;;23.33;10.20;;;;;;;11.39;79.31;102131.67;5110543;56;1143482;-65
2022/10/06 22:44:45;;;;;;;41.35;15.18;;;;;;;11.41;79.68;102130.27;5072315;58;1143360;-68
2022/10/06 22:49:50;;;;;;;43.07;16.37;;;;;;;11.32;79.32;102127.64;5071918;57;1143212;-67
2022/10/06 22:54:56;;;;;;;62.10;19.90;;;;;;;11.27;79.11;102119.11;5072426;57;1143146;-70
2022/10/06 23:00:02;;;;;;;85.60;23.83;;;;;;;11.13;78.79;102126.96;5072404;57;1143409;-67
2022/10/06 23:05:09;;;;;;;83.53;24.53;;;;;;;11.00;78.94;102123.27;5072492;57;1143249;-67
2022/10/06 23:10:15;;;;;;;99.37;29.50;;;;;;;10.84;79.05;102117.94;5072385;57;1143513;-68
2022/10/06 23:15:21;;;;;;;81.17;24.70;;;;;;;10.77;79.75;102127.12;5032957;58;1143153;-71
2022/10/06 23:20:27;;;;;;;101.70;34.17;;;;;;;10.79;79.61;102122.61;4991423;58;1143453;-66
2022/10/06 23:25:38;;;;;;;79.57;27.00;;;;;;;10.81;79.85;102130.86;4995160;59;1145417;-68
2022/10/06 23:30:44;;;;;;;49.43;19.80;;;;;;;10.79;80.02;102122.61;4998293;57;1143250;-69
2022/10/06 23:35:58;;;;;;;50.17;16.43;;;;;;;10.77;80.25;102135.06;4946774;58;1143407;-67
2022/10/06 23:41:06;;;;;;;37.90;14.40;;;;;;;10.75;80.39;102128.52;4992719;58;1143472;-64
2022/10/06 23:46:12;;;;;;;42.37;14.87;;;;;;;10.72;80.46;102128.68;4967869;58;1143467;-67
2022/10/06 23:51:17;;;;;;;61.60;20.87;;;;;;;10.68;80.39;102128.95;4898112;58;1143657;-69
2022/10/06 23:56:24;;;;;;;89.83;25.20;;;;;;;10.58;80.57;102131.19;4894331;59;1141107;-67
